Time;durP1;ratioP1;P1;durP2;ratioP2;P2;SDS_P1;SDS_P2;PMS_P1;PMS_P2;Temp;Humidity;BMP_temperature;BMP_pressure;BME280_temperature;BME280_humidity;BME280_pressure;Samples;Min_cycle;Max_cycle;Signal;HPM_P1;HPM_P2
2023/05/20 10:15:58;;;;;;;17.83;7.43;;;;;;;;;;5041736;27;20414;-54
2023/05/20 10:18:32;;;;;;;13.80;6.63;;;;;;;;;;5017566;28;20017;-54
2023/05/20 10:20:57;;;;;;;16.55;7.50;;;;;;;;;;5015935;28;20283;-56
2023/05/20 10:23:23;;;;;;;18.17;7.73;;;;;;;;;;5017600;28;20036;-56
2023/05/20 10:25:50;;;;;;;19.10;8.73;;;;;;;;;;5015345;28;20486;-57
2023/05/20 10:28:15;;;;;;;15.90;7.70;;;;;;;;;;5014967;28;20139;-56
2023/05/20 10:30:48;;;;;;;17.42;8.68;;;;;;;;;;5013810;28;20559;-56
2023/05/20 10:33:15;;;;;;;13.55;7.10;;;;;;;;;;5015764;28;20106;-56
2023/05/20 10:35:46;;;;;;;16.77;7.93;;;;;;;;;;5014680;28;20052;-55
2023/05/20 10:38:11;;;;;;;15.88;7.50;;;;;;;;;;5015677;28;20026;-53
2023/05/20 10:40:37;;;;;;;16.65;7.63;;;;;;;;;;5015384;28;20047;-54
2023/05/20 10:43:09;;;;;;;18.45;8.15;;;;;;;;;;5013632;28;20028;-58
2023/05/20 10:45:36;;;;;;;18.30;8.50;;;;;;;;;;5015241;28;20490;-54
2023/05/20 10:48:01;;;;;;;17.92;8.10;;;;;;;;;;5014101;28;20318;-53
2023/05/20 10:50:33;;;;;;;17.60;8.00;;;;;;;;;;5016759;28;20091;-56
2023/05/20 10:53:05;;;;;;;19.00;8.48;;;;;;;;;;5015506;28;20026;-59
2023/05/20 10:55:37;;;;;;;15.85;8.02;;;;;;;;;;5015629;28;20422;-57
2023/05/20 10:58:03;;;;;;;18.20;8.55;;;;;;;;;;5017473;28;20635;-55
2023/05/20 11:00:28;;;;;;;20.25;8.32;;;;;;;;;;5015963;28;20329;-55
2023/05/20 11:02:54;;;;;;;24.53;9.53;;;;;;;;;;5014084;28;20033;-55
2023/05/20 11:05:19;;;;;;;20.63;8.68;;;;;;;;;;5015477;28;20195;-56
2023/05/20 11:07:44;;;;;;;23.63;9.23;;;;;;;;;;5014565;28;20001;-58
2023/05/20 11:10:10;;;;;;;15.93;8.37;;;;;;;;;;5016049;28;20025;-57
2023/05/20 11:12:35;;;;;;;19.92;8.32;;;;;;;;;;5015282;28;20067;-56
2023/05/20 11:15:01;;;;;;;17.77;8.37;;;;;;;;;;5014074;28;20056;-58
2023/05/20 11:17:27;;;;;;;19.95;8.15;;;;;;;;;;5017197;28;20644;-56
2023/05/20 11:19:52;;;;;;;26.43;9.63;;;;;;;;;;5017069;28;20431;-54
2023/05/20 11:22:17;;;;;;;16.90;7.67;;;;;;;;;;5015940;28;20726;-56
2023/05/20 11:24:42;;;;;;;24.90;9.43;;;;;;;;;;5015242;28;20264;-55
2023/05/20 11:27:08;;;;;;;14.45;7.82;;;;;;;;;;5004919;28;20037;-55
2023/05/20 11:29:34;;;;;;;15.48;7.63;;;;;;;;;;5005100;28;20053;-56
2023/05/20 11:32:00;;;;;;;15.38;7.07;;;;;;;;;;5002091;28;20033;-54
2023/05/20 11:34:25;;;;;;;15.40;7.82;;;;;;;;;;5005283;28;20056;-55
2023/05/20 11:36:57;;;;;;;26.35;9.95;;;;;;;;;;5002275;28;20231;-57
2023/05/20 11:39:22;;;;;;;;;;;;;;;;;;5003614;28;20391;-57
2023/05/20 11:41:48;;;;;;;25.70;10.73;;;;;;;;;;5003830;28;19924;-56
2023/05/20 11:44:13;;;;;;;20.50;9.27;;;;;;;;;;5004137;28;20013;-56
2023/05/20 11:47:02;;;;;;;15.98;8.05;;;;;;;;;;5005380;28;20375;-55
2023/05/20 11:49:27;;;;;;;22.30;8.90;;;;;;;;;;4973238;28;20037;-57
2023/05/20 11:51:52;;;;;;;26.55;10.23;;;;;;;;;;5003691;28;20033;-54
2023/05/20 11:54:20;;;;;;;19.30;6.80;;;;;;;;;;5003878;28;20017;-57
2023/05/20 11:56:46;;;;;;;25.85;9.35;;;;;;;;;;5003057;28;20509;-57
2023/05/20 12:01:46;;;;;;;49.05;14.05;;;;;;;;;;5224835;23;20095;-54
2023/05/20 12:04:15;;;;;;;23.60;8.87;;;;;;;;;;4945582;28;20031;-55
2023/05/20 12:06:41;;;;;;;26.88;9.32;;;;;;;;;;4942727;28;20274;-58
2023/05/20 12:09:07;;;;;;;21.80;8.88;;;;;;;;;;4947572;28;20179;-58
2023/05/20 12:11:33;;;;;;;23.95;8.82;;;;;;;;;;4946744;28;20321;-58
2023/05/20 12:13:59;;;;;;;28.25;10.00;;;;;;;;;;4945419;28;20022;-58
2023/05/20 12:16:24;;;;;;;18.67;8.30;;;;;;;;;;4947522;28;20023;-58
2023/05/20 12:18:49;;;;;;;28.23;9.80;;;;;;;;;;4944798;28;20035;-59
2023/05/20 12:21:14;;;;;;;20.80;7.87;;;;;;;;;;4944568;28;20035;-56
2023/05/20 12:23:40;;;;;;;23.10;9.30;;;;;;;;;;4945079;28;20043;-56
2023/05/20 12:26:05;;;;;;;29.45;9.35;;;;;;;;;;4944330;28;20161;-58
2023/05/20 12:28:30;;;;;;;24.93;9.27;;;;;;;;;;4944214;28;20582;-55
2023/05/20 12:30:56;;;;;;;35.38;10.25;;;;;;;;;;4943494;28;20354;-58
2023/05/20 12:33:21;;;;;;;27.03;9.30;;;;;;;;;;4945054;28;21007;-58
2023/05/20 12:35:46;;;;;;;36.78;10.82;;;;;;;;;;4942573;28;20334;-59
2023/05/20 12:38:11;;;;;;;33.33;9.90;;;;;;;;;;4942677;28;20018;-57
2023/05/20 12:40:37;;;;;;;27.07;8.80;;;;;;;;;;4943705;28;20428;-57
2023/05/20 12:43:03;;;;;;;24.00;9.23;;;;;;;;;;4943398;28;20074;-57
2023/05/20 12:45:28;;;;;;;35.95;9.70;;;;;;;;;;4944692;28;20259;-56
2023/05/20 12:47:54;;;;;;;42.72;11.20;;;;;;;;;;4944758;28;20085;-59
2023/05/20 12:50:19;;;;;;;26.13;9.63;;;;;;;;;;4943913;28;20029;-59
2023/05/20 12:52:45;;;;;;;33.17;10.40;;;;;;;;;;4943854;28;20015;-54
2023/05/20 12:55:12;;;;;;;29.40;9.40;;;;;;;;;;4947591;28;20401;-59
2023/05/20 12:57:41;;;;;;;28.00;7.90;;;;;;;;;;4945035;28;20018;-59
2023/05/20 13:00:07;;;;;;;34.88;10.40;;;;;;;;;;4942026;28;20031;-55
2023/05/20 13:02:32;;;;;;;27.83;9.07;;;;;;;;;;4945419;28;20541;-58
2023/05/20 13:04:58;;;;;;;35.97;10.18;;;;;;;;;;4941677;28;20038;-55
2023/05/20 13:07:25;;;;;;;24.73;8.93;;;;;;;;;;4943141;28;20798;-53
2023/05/20 13:09:50;;;;;;;42.78;11.15;;;;;;;;;;4943478;28;21011;-52
2023/05/20 13:12:16;;;;;;;27.13;8.23;;;;;;;;;;4945148;28;20039;-55
2023/05/20 13:14:41;;;;;;;27.40;9.33;;;;;;;;;;4943216;28;20659;-55
2023/05/20 13:17:06;;;;;;;25.67;8.53;;;;;;;;;;4944835;28;20113;-54
2023/05/20 13:19:32;;;;;;;20.70;7.73;;;;;;;;;;4946138;28;20243;-53
2023/05/20 13:21:57;;;;;;;34.92;9.93;;;;;;;;;;4941783;28;20038;-53
2023/05/20 13:24:23;;;;;;;26.63;8.63;;;;;;;;;;4945024;28;20023;-52
2023/05/20 13:26:48;;;;;;;26.70;8.37;;;;;;;;;;4943088;28;20043;-53
2023/05/20 13:29:13;;;;;;;18.97;7.77;;;;;;;;;;4943583;28;20862;-53
2023/05/20 13:31:38;;;;;;;22.75;8.32;;;;;;;;;;4944846;28;20373;-53
2023/05/20 13:34:04;;;;;;;31.57;9.13;;;;;;;;;;4942493;28;20864;-53
2023/05/20 13:36:29;;;;;;;18.70;7.70;;;;;;;;;;4942768;28;20306;-55
2023/05/20 13:38:55;;;;;;;24.40;8.40;;;;;;;;;;4942901;28;20517;-55
2023/05/20 13:41:20;;;;;;;20.73;8.05;;;;;;;;;;4944235;28;20425;-55
2023/05/20 13:43:45;;;;;;;24.97;8.37;;;;;;;;;;4944643;28;20026;-54
2023/05/20 13:46:11;;;;;;;21.73;8.05;;;;;;;;;;4942895;28;20267;-53
2023/05/20 13:48:36;;;;;;;22.50;8.37;;;;;;;;;;4945160;28;20022;-55
2023/05/20 13:51:01;;;;;;;37.33;9.83;;;;;;;;;;4940903;28;20274;-54
2023/05/20 13:53:27;;;;;;;22.13;8.30;;;;;;;;;;4944255;28;20093;-58
2023/05/20 13:55:52;;;;;;;32.10;9.15;;;;;;;;;;4941432;28;20233;-52
2023/05/20 13:58:18;;;;;;;20.77;8.20;;;;;;;;;;4943611;28;20011;-52
2023/05/20 14:00:43;;;;;;;24.85;8.73;;;;;;;;;;4941767;28;20042;-52
2023/05/20 14:03:09;;;;;;;28.30;8.67;;;;;;;;;;4944491;28;20027;-52
2023/05/20 14:05:34;;;;;;;22.80;8.02;;;;;;;;;;4941863;28;20624;-55
2023/05/20 14:08:00;;;;;;;39.58;10.63;;;;;;;;;;4940635;28;20407;-56
2023/05/20 14:10:25;;;;;;;28.92;9.05;;;;;;;;;;4942521;28;20046;-55
2023/05/20 14:12:51;;;;;;;26.83;8.15;;;;;;;;;;4943567;28;20161;-53
2023/05/20 14:15:16;;;;;;;22.83;7.90;;;;;;;;;;4943146;28;20038;-54
2023/05/20 14:17:41;;;;;;;24.13;7.93;;;;;;;;;;4943637;28;20012;-56
2023/05/20 14:20:07;;;;;;;32.67;9.33;;;;;;;;;;4942310;28;20015;-53
2023/05/20 14:22:32;;;;;;;26.65;7.78;;;;;;;;;;4943248;28;21011;-53
2023/05/20 14:24:58;;;;;;;26.60;8.47;;;;;;;;;;4943362;28;20028;-55
2023/05/20 14:27:23;;;;;;;15.07;6.87;;;;;;;;;;4941887;28;20303;-56
2023/05/20 14:29:48;;;;;;;28.73;8.07;;;;;;;;;;4941811;28;21030;-55
2023/05/20 14:32:13;;;;;;;20.23;7.90;;;;;;;;;;4944181;28;20273;-55
2023/05/20 14:34:39;;;;;;;18.40;7.22;;;;;;;;;;4944110;28;20023;-56
2023/05/20 14:37:08;;;;;;;30.87;9.03;;;;;;;;;;4941612;28;20027;-53
2023/05/20 14:39:33;;;;;;;24.13;8.02;;;;;;;;;;4944232;28;20042;-53
2023/05/20 14:41:59;;;;;;;27.80;7.97;;;;;;;;;;4938991;28;20110;-57
2023/05/20 14:44:24;;;;;;;17.10;7.03;;;;;;;;;;4944851;28;20015;-57
2023/05/20 14:46:49;;;;;;;20.15;7.78;;;;;;;;;;4944348;28;20050;-58
2023/05/20 14:49:15;;;;;;;23.25;7.53;;;;;;;;;;4943316;28;20050;-59
2023/05/20 14:51:41;;;;;;;25.13;8.00;;;;;;;;;;4942363;28;20118;-61
2023/05/20 14:54:07;;;;;;;31.20;8.73;;;;;;;;;;4942108;28;20283;-58
2023/05/20 14:56:32;;;;;;;26.95;8.50;;;;;;;;;;4944311;28;20114;-57
2023/05/20 14:58:58;;;;;;;33.17;9.23;;;;;;;;;;4940823;28;20122;-59
2023/05/20 15:01:23;;;;;;;21.73;7.90;;;;;;;;;;4944825;28;20279;-61
2023/05/20 15:03:48;;;;;;;28.53;8.77;;;;;;;;;;4946959;28;20254;-58
2023/05/20 15:06:13;;;;;;;25.33;8.03;;;;;;;;;;4945561;28;20133;-54
2023/05/20 15:08:39;;;;;;;25.90;8.33;;;;;;;;;;4947611;28;20022;-56
2023/05/20 15:11:04;;;;;;;40.57;10.03;;;;;;;;;;4942899;28;20265;-55
2023/05/20 15:13:29;;;;;;;22.70;7.63;;;;;;;;;;4944872;28;20309;-58
2023/05/20 15:15:54;;;;;;;25.93;8.17;;;;;;;;;;4946338;28;20045;-55
2023/05/20 15:18:20;;;;;;;21.60;7.78;;;;;;;;;;4945531;28;20267;-55
2023/05/20 15:20:45;;;;;;;24.15;8.45;;;;;;;;;;4945038;28;20039;-55
2023/05/20 15:23:10;;;;;;;35.20;9.17;;;;;;;;;;4944322;28;20030;-57
2023/05/20 15:25:35;;;;;;;22.00;7.70;;;;;;;;;;4945790;28;20062;-56
2023/05/20 15:28:01;;;;;;;41.38;10.13;;;;;;;;;;4944994;28;20082;-54
2023/05/20 15:30:26;;;;;;;17.60;7.13;;;;;;;;;;4945113;28;20043;-54
2023/05/20 15:32:51;;;;;;;21.77;7.73;;;;;;;;;;4946758;28;20759;-58
2023/05/20 15:35:16;;;;;;;26.03;8.37;;;;;;;;;;4944554;28;20031;-54
2023/05/20 15:37:41;;;;;;;25.77;8.33;;;;;;;;;;4947536;28;20107;-56
2023/05/20 15:40:07;;;;;;;43.67;10.47;;;;;;;;;;4943666;28;20104;-54
2023/05/20 15:42:33;;;;;;;24.02;8.43;;;;;;;;;;4947250;28;20273;-55
2023/05/20 15:44:58;;;;;;;32.92;9.77;;;;;;;;;;4945328;28;20165;-56
2023/05/20 15:47:24;;;;;;;26.90;8.23;;;;;;;;;;4945642;28;20038;-54
2023/05/20 15:49:49;;;;;;;22.63;7.83;;;;;;;;;;4946310;28;20262;-56
2023/05/20 15:52:14;;;;;;;19.33;7.60;;;;;;;;;;4944625;28;20270;-54
2023/05/20 15:54:40;;;;;;;23.70;8.10;;;;;;;;;;4945955;28;20109;-54
2023/05/20 15:57:05;;;;;;;31.25;9.20;;;;;;;;;;4944249;28;20035;-56
2023/05/20 15:59:30;;;;;;;25.33;7.63;;;;;;;;;;4945224;28;20034;-56
2023/05/20 16:01:56;;;;;;;28.30;11.27;;;;;;;;;;4944136;28;20193;-57
2023/05/20 16:04:21;;;;;;;18.57;7.60;;;;;;;;;;4946788;28;20263;-57
2023/05/20 16:06:46;;;;;;;32.23;8.87;;;;;;;;;;4945506;28;20291;-55
2023/05/20 16:09:11;;;;;;;52.70;12.00;;;;;;;;;;4943357;28;20747;-56
2023/05/20 16:11:36;;;;;;;30.53;11.23;;;;;;;;;;4945503;28;20057;-56
2023/05/20 16:14:02;;;;;;;47.97;11.70;;;;;;;;;;4945779;28;20266;-61
2023/05/20 16:16:27;;;;;;;25.60;8.77;;;;;;;;;;4944620;28;20075;-56
2023/05/20 16:18:52;;;;;;;29.90;9.23;;;;;;;;;;4946267;28;20059;-58
2023/05/20 16:21:18;;;;;;;29.35;11.75;;;;;;;;;;4943200;28;20027;-57
2023/05/20 16:23:43;;;;;;;30.17;9.55;;;;;;;;;;4946057;28;20130;-57
2023/05/20 16:26:09;;;;;;;37.42;10.18;;;;;;;;;;4944044;28;20039;-55
2023/05/20 16:28:34;;;;;;;28.80;8.70;;;;;;;;;;4944154;28;20054;-55
2023/05/20 16:31:00;;;;;;;37.13;9.63;;;;;;;;;;4945309;28;20024;-56
2023/05/20 16:33:25;;;;;;;25.70;8.37;;;;;;;;;;4943709;28;20081;-54
2023/05/20 16:35:51;;;;;;;21.50;7.75;;;;;;;;;;4943673;28;20066;-54
2023/05/20 16:38:16;;;;;;;22.73;7.65;;;;;;;;;;4944114;28;20246;-54
2023/05/20 16:40:41;;;;;;;26.83;8.33;;;;;;;;;;4944158;28;20035;-53
2023/05/20 16:43:06;;;;;;;33.00;10.00;;;;;;;;;;4944253;28;20737;-54
2023/05/20 16:45:31;;;;;;;22.03;8.13;;;;;;;;;;4945088;28;20888;-56
2023/05/20 16:47:57;;;;;;;23.70;8.13;;;;;;;;;;4946487;28;20022;-54
2023/05/20 16:50:22;;;;;;;25.52;8.30;;;;;;;;;;4943306;28;20262;-56
2023/05/20 16:52:47;;;;;;;25.48;8.20;;;;;;;;;;4944819;28;20030;-57
2023/05/20 16:55:13;;;;;;;33.50;9.17;;;;;;;;;;4940791;28;20028;-56
2023/05/20 16:57:38;;;;;;;29.80;8.65;;;;;;;;;;4943991;28;20274;-55
2023/05/20 17:00:07;;;;;;;39.70;10.57;;;;;;;;;;4942859;28;20018;-54
2023/05/20 17:02:32;;;;;;;18.65;7.82;;;;;;;;;;4943570;28;20278;-56
2023/05/20 17:04:57;;;;;;;22.55;8.07;;;;;;;;;;4943381;28;20421;-56
2023/05/20 17:07:22;;;;;;;26.97;8.57;;;;;;;;;;4944495;28;20027;-56
2023/05/20 17:09:48;;;;;;;29.23;8.33;;;;;;;;;;4945674;28;20027;-55
2023/05/20 17:12:13;;;;;;;40.70;10.50;;;;;;;;;;4941496;28;20577;-55
2023/05/20 17:14:38;;;;;;;30.02;8.93;;;;;;;;;;4943520;28;20208;-54
2023/05/20 17:17:04;;;;;;;42.53;10.43;;;;;;;;;;4942816;28;20027;-56
2023/05/20 17:19:29;;;;;;;28.63;8.45;;;;;;;;;;4944706;28;20031;-54
2023/05/20 17:21:54;;;;;;;27.20;8.17;;;;;;;;;;4944282;28;20046;-53
2023/05/20 17:24:19;;;;;;;25.35;8.30;;;;;;;;;;4941932;28;20340;-54
2023/05/20 17:26:45;;;;;;;30.23;9.17;;;;;;;;;;4943093;28;20039;-55
2023/05/20 17:29:10;;;;;;;45.37;10.67;;;;;;;;;;4942571;28;20023;-57
2023/05/20 17:31:35;;;;;;;24.87;8.03;;;;;;;;;;4944066;28;20050;-54
2023/05/20 17:34:00;;;;;;;30.57;8.97;;;;;;;;;;4942218;28;20254;-55
2023/05/20 17:36:26;;;;;;;21.13;7.47;;;;;;;;;;4944215;28;20081;-54
2023/05/20 17:38:51;;;;;;;24.92;8.55;;;;;;;;;;4943048;28;20949;-53
2023/05/20 17:41:17;;;;;;;34.55;9.18;;;;;;;;;;4941888;28;20031;-53
2023/05/20 17:43:42;;;;;;;23.88;7.85;;;;;;;;;;4945319;28;20077;-56
2023/05/20 17:46:08;;;;;;;36.92;9.63;;;;;;;;;;4940981;28;20874;-53
2023/05/20 17:48:33;;;;;;;26.00;7.83;;;;;;;;;;4946182;28;20050;-55
2023/05/20 17:50:58;;;;;;;26.13;8.30;;;;;;;;;;4941490;28;20350;-55
2023/05/20 17:53:23;;;;;;;22.85;7.68;;;;;;;;;;4941890;28;20275;-54
2023/05/20 17:55:49;;;;;;;24.52;7.97;;;;;;;;;;4942946;28;20038;-55
2023/05/20 17:58:14;;;;;;;39.67;9.98;;;;;;;;;;4942953;28;20152;-57
2023/05/20 18:00:41;;;;;;;25.85;8.23;;;;;;;;;;4944440;28;20053;-56
2023/05/20 18:03:06;;;;;;;28.48;8.63;;;;;;;;;;4941341;28;20049;-56
2023/05/20 18:05:32;;;;;;;27.23;8.60;;;;;;;;;;4943000;28;20414;-55
2023/05/20 18:07:57;;;;;;;27.90;8.53;;;;;;;;;;4943778;28;20110;-54
2023/05/20 18:10:22;;;;;;;27.57;8.70;;;;;;;;;;4941209;28;20325;-56
2023/05/20 18:12:47;;;;;;;31.03;8.90;;;;;;;;;;4943743;28;20799;-54
2023/05/20 18:15:13;;;;;;;43.90;10.60;;;;;;;;;;4941270;28;20747;-55
2023/05/20 18:17:38;;;;;;;39.42;9.68;;;;;;;;;;4943876;28;20106;-54
2023/05/20 18:20:04;;;;;;;34.17;9.82;;;;;;;;;;4940519;28;20061;-53
2023/05/20 18:22:30;;;;;;;28.73;8.70;;;;;;;;;;4945047;28;20034;-54
2023/05/20 18:24:55;;;;;;;31.20;9.20;;;;;;;;;;4942724;28;20061;-55
2023/05/20 18:27:20;;;;;;;41.50;10.60;;;;;;;;;;4941127;28;20165;-54
2023/05/20 18:29:46;;;;;;;37.13;9.77;;;;;;;;;;4941182;28;20038;-55
2023/05/20 18:32:11;;;;;;;46.72;11.23;;;;;;;;;;4942953;28;20298;-54
2023/05/20 18:34:36;;;;;;;29.55;8.70;;;;;;;;;;4944339;28;20027;-56
2023/05/20 18:37:01;;;;;;;31.13;9.87;;;;;;;;;;4946406;28;20038;-54
2023/05/20 18:39:27;;;;;;;27.52;8.82;;;;;;;;;;4946862;28;20251;-54
2023/05/20 18:41:52;;;;;;;24.63;8.57;;;;;;;;;;4946231;28;20031;-54
2023/05/20 18:44:18;;;;;;;41.17;10.07;;;;;;;;;;4948226;28;20073;-55
2023/05/20 18:46:43;;;;;;;23.90;8.45;;;;;;;;;;4946128;28;20282;-55
2023/05/20 18:49:11;;;;;;;33.40;9.32;;;;;;;;;;4946777;28;20061;-55
2023/05/20 18:51:37;;;;;;;26.17;8.45;;;;;;;;;;4946904;28;20034;-55
2023/05/20 18:54:02;;;;;;;25.17;8.50;;;;;;;;;;4947778;28;20031;-57
2023/05/20 18:56:28;;;;;;;30.08;9.02;;;;;;;;;;4944239;28;20433;-54
2023/05/20 18:58:53;;;;;;;25.58;8.93;;;;;;;;;;4944908;28;20558;-54
2023/05/20 19:01:19;;;;;;;34.47;9.50;;;;;;;;;;4944753;28;20596;-55
2023/05/20 19:03:44;;;;;;;32.20;9.02;;;;;;;;;;4947241;28;20293;-56
2023/05/20 19:06:10;;;;;;;37.30;10.02;;;;;;;;;;4945695;28;20031;-58
2023/05/20 19:08:35;;;;;;;29.83;9.82;;;;;;;;;;4946315;28;20027;-56
2023/05/20 19:11:00;;;;;;;32.70;8.93;;;;;;;;;;4946606;28;20095;-56
2023/05/20 19:13:25;;;;;;;30.77;9.13;;;;;;;;;;4945572;28;20574;-58
2023/05/20 19:15:51;;;;;;;31.65;9.30;;;;;;;;;;4943541;28;20678;-55
2023/05/20 19:18:16;;;;;;;42.30;10.68;;;;;;;;;;4945336;28;20019;-57
2023/05/20 19:20:41;;;;;;;39.63;10.37;;;;;;;;;;4945377;28;20059;-54
2023/05/20 19:23:06;;;;;;;33.93;10.20;;;;;;;;;;4946838;28;20271;-54
2023/05/20 19:25:32;;;;;;;30.17;8.83;;;;;;;;;;4945938;28;20271;-56
2023/05/20 19:27:57;;;;;;;34.83;10.05;;;;;;;;;;4944475;28;20262;-54
2023/05/20 19:30:22;;;;;;;55.95;12.45;;;;;;;;;;4943403;28;20061;-57
2023/05/20 19:32:47;;;;;;;30.30;9.63;;;;;;;;;;4942587;28;20018;-56
2023/05/20 19:35:13;;;;;;;47.90;10.90;;;;;;;;;;4943966;28;20286;-57
2023/05/20 19:37:38;;;;;;;33.13;9.50;;;;;;;;;;4946803;28;20078;-54
2023/05/20 19:40:03;;;;;;;36.30;10.00;;;;;;;;;;4947260;28;20026;-52
2023/05/20 19:42:29;;;;;;;32.40;9.05;;;;;;;;;;4945152;28;20102;-55
2023/05/20 19:44:54;;;;;;;26.08;9.38;;;;;;;;;;4946698;28;20030;-56
2023/05/20 19:47:20;;;;;;;42.13;11.52;;;;;;;;;;4945333;28;20117;-56
2023/05/20 19:49:45;;;;;;;36.63;10.20;;;;;;;;;;4947571;28;20400;-59
2023/05/20 19:52:10;;;;;;;31.45;9.50;;;;;;;;;;4943317;28;20043;-54
2023/05/20 19:54:36;;;;;;;27.17;9.50;;;;;;;;;;4946509;28;20031;-58
2023/05/20 19:57:01;;;;;;;30.38;9.45;;;;;;;;;;4945806;28;20274;-57
2023/05/20 19:59:26;;;;;;;46.90;11.10;;;;;;;;;;4944739;28;20126;-54
2023/05/20 20:01:52;;;;;;;30.03;9.47;;;;;;;;;;4943768;28;20026;-58
2023/05/20 20:04:18;;;;;;;49.20;11.25;;;;;;;;;;4944882;28;20274;-59
2023/05/20 20:06:43;;;;;;;36.50;10.48;;;;;;;;;;4946704;28;20043;-57
2023/05/20 20:09:09;;;;;;;35.92;10.50;;;;;;;;;;4948066;28;20116;-58
2023/05/20 20:11:34;;;;;;;33.47;10.20;;;;;;;;;;4944700;28;20031;-56
2023/05/20 20:14:00;;;;;;;41.03;10.82;;;;;;;;;;4944913;28;20023;-59
2023/05/20 20:16:25;;;;;;;54.67;12.43;;;;;;;;;;4943738;28;20043;-57
2023/05/20 20:18:51;;;;;;;37.63;10.65;;;;;;;;;;4943965;28;20062;-60
2023/05/20 20:21:16;;;;;;;50.95;12.50;;;;;;;;;;4943140;28;20027;-56
2023/05/20 20:23:42;;;;;;;38.03;10.80;;;;;;;;;;4945573;28;20019;-55
2023/05/20 20:26:07;;;;;;;30.40;9.95;;;;;;;;;;4944457;28;20028;-57
2023/05/20 20:28:32;;;;;;;40.55;10.88;;;;;;;;;;4943840;28;20023;-54
2023/05/20 20:30:58;;;;;;;38.50;11.38;;;;;;;;;;4944582;28;20580;-54
2023/05/20 20:33:23;;;;;;;47.78;11.73;;;;;;;;;;4943089;28;20019;-57
2023/05/20 20:35:48;;;;;;;33.95;10.02;;;;;;;;;;4944693;28;20035;-55
2023/05/20 20:38:13;;;;;;;36.58;11.05;;;;;;;;;;4942885;28;20019;-53
2023/05/20 20:40:41;;;;;;;31.17;10.13;;;;;;;;;;4943358;28;20039;-53
2023/05/20 20:43:06;;;;;;;28.40;10.05;;;;;;;;;;4944121;28;20588;-53
2023/05/20 20:45:32;;;;;;;31.35;9.60;;;;;;;;;;4942149;28;20727;-55
2023/05/20 20:47:59;;;;;;;34.67;10.30;;;;;;;;;;4946012;28;20508;-53
2023/05/20 20:50:25;;;;;;;45.20;11.38;;;;;;;;;;4942635;28;20035;-56
2023/05/20 20:52:50;;;;;;;27.50;9.95;;;;;;;;;;4944105;28;20041;-53
2023/05/20 20:55:15;;;;;;;35.00;10.97;;;;;;;;;;4944199;28;20019;-56
2023/05/20 20:57:41;;;;;;;31.92;10.65;;;;;;;;;;4944634;28;20303;-56
2023/05/20 21:00:15;;;;;;;34.70;10.27;;;;;;;;;;4942851;28;20090;-57
2023/05/20 21:02:40;;;;;;;34.88;10.75;;;;;;;;;;4944136;28;20046;-57
2023/05/20 21:05:05;;;;;;;28.83;10.00;;;;;;;;;;4943113;28;20030;-57
2023/05/20 21:07:31;;;;;;;50.88;11.25;;;;;;;;;;4943266;28;20133;-55
2023/05/20 21:09:56;;;;;;;30.42;9.57;;;;;;;;;;4944550;28;20033;-55
2023/05/20 21:12:21;;;;;;;47.65;11.77;;;;;;;;;;4944581;28;20446;-53
2023/05/20 21:14:47;;;;;;;30.93;9.47;;;;;;;;;;4944913;28;20449;-56
2023/05/20 21:17:12;;;;;;;28.47;9.27;;;;;;;;;;4943284;28;20337;-56
2023/05/20 21:19:37;;;;;;;30.03;9.53;;;;;;;;;;4945954;28;20281;-55
2023/05/20 21:22:03;;;;;;;29.10;9.80;;;;;;;;;;4945267;28;20270;-55
2023/05/20 21:24:28;;;;;;;40.75;11.70;;;;;;;;;;4943172;28;20201;-52
2023/05/20 21:26:53;;;;;;;32.50;10.10;;;;;;;;;;4943694;28;20135;-54
2023/05/20 21:29:19;;;;;;;47.38;11.82;;;;;;;;;;4941820;28;20410;-56
2023/05/20 21:31:44;;;;;;;30.13;10.65;;;;;;;;;;4944235;28;20917;-57
2023/05/20 21:34:09;;;;;;;37.00;10.93;;;;;;;;;;4945591;28;20681;-55
2023/05/20 21:36:35;;;;;;;40.60;11.43;;;;;;;;;;4942706;28;20311;-55
2023/05/20 21:39:00;;;;;;;36.80;10.55;;;;;;;;;;4944134;28;20043;-56
2023/05/20 21:41:26;;;;;;;55.40;12.63;;;;;;;;;;4941164;28;20031;-55
2023/05/20 21:43:51;;;;;;;36.28;10.50;;;;;;;;;;4945041;28;20279;-56
2023/05/20 21:46:16;;;;;;;34.38;10.43;;;;;;;;;;4943582;28;20035;-54
2023/05/20 21:48:41;;;;;;;37.78;11.35;;;;;;;;;;4943219;28;20027;-56
2023/05/20 21:51:06;;;;;;;38.13;11.07;;;;;;;;;;4944002;28;20051;-55
2023/05/20 21:53:32;;;;;;;55.57;12.93;;;;;;;;;;4943645;28;20254;-56
2023/05/20 21:55:57;;;;;;;38.40;10.63;;;;;;;;;;4944629;28;20275;-55
2023/05/20 21:58:22;;;;;;;55.70;12.80;;;;;;;;;;4942930;28;20310;-53
2023/05/20 22:00:48;;;;;;;34.60;10.43;;;;;;;;;;4944448;28;20298;-58
2023/05/20 22:03:13;;;;;;;27.02;9.93;;;;;;;;;;4945955;28;20061;-55
2023/05/20 22:05:39;;;;;;;31.00;10.15;;;;;;;;;;4942319;28;20533;-52
2023/05/20 22:08:04;;;;;;;46.13;11.18;;;;;;;;;;4945263;28;20062;-54
2023/05/20 22:10:32;;;;;;;50.45;12.13;;;;;;;;;;4942210;28;20065;-54
2023/05/20 22:12:58;;;;;;;30.98;10.50;;;;;;;;;;4944954;28;20034;-54
2023/05/20 22:15:23;;;;;;;47.90;12.23;;;;;;;;;;4941956;28;20027;-55
2023/05/20 22:17:48;;;;;;;27.43;9.77;;;;;;;;;;4944963;28;20575;-55
2023/05/20 22:20:13;;;;;;;30.92;10.40;;;;;;;;;;4943900;28;20632;-55
2023/05/20 22:22:39;;;;;;;26.63;10.07;;;;;;;;;;4941914;28;20015;-55
2023/05/20 22:25:05;;;;;;;25.27;9.95;;;;;;;;;;4945080;28;20027;-55
2023/05/20 22:27:31;;;;;;;53.28;12.70;;;;;;;;;;4943247;28;20201;-55
2023/05/20 22:29:57;;;;;;;40.42;10.85;;;;;;;;;;4941013;28;20130;-52
2023/05/20 22:32:22;;;;;;;40.28;11.38;;;;;;;;;;4940811;28;20039;-54
2023/05/20 22:34:47;;;;;;;42.13;11.98;;;;;;;;;;4940666;28;20046;-55
2023/05/20 22:37:13;;;;;;;40.27;12.00;;;;;;;;;;4939817;28;20035;-54
2023/05/20 22:39:38;;;;;;;49.03;12.13;;;;;;;;;;4941071;28;21961;-53
2023/05/20 22:42:04;;;;;;;38.83;11.20;;;;;;;;;;4939467;28;20032;-52
2023/05/20 22:44:29;;;;;;;66.18;13.82;;;;;;;;;;4937554;28;20281;-54
2023/05/20 22:46:54;;;;;;;45.25;12.27;;;;;;;;;;4939368;28;20036;-55
2023/05/20 22:49:22;;;;;;;43.42;11.38;;;;;;;;;;4938844;28;20133;-55
2023/05/20 22:51:47;;;;;;;43.60;11.98;;;;;;;;;;4939589;28;20094;-57
2023/05/20 22:54:13;;;;;;;36.78;11.15;;;;;;;;;;4940797;28;20019;-53
2023/05/20 22:56:38;;;;;;;50.90;12.77;;;;;;;;;;4939111;28;20043;-54
2023/05/20 22:59:03;;;;;;;34.42;10.73;;;;;;;;;;4940422;28;20540;-55
2023/05/20 23:01:28;;;;;;;56.33;12.77;;;;;;;;;;4937944;28;20026;-56
2023/05/20 23:03:54;;;;;;;32.20;10.93;;;;;;;;;;4941184;28;21093;-58
2023/05/20 23:06:21;;;;;;;38.87;10.87;;;;;;;;;;4939766;28;20267;-55
2023/05/20 23:08:46;;;;;;;37.53;11.25;;;;;;;;;;4939598;28;20950;-53
2023/05/20 23:11:11;;;;;;;47.10;12.35;;;;;;;;;;4939329;28;20652;-53
2023/05/20 23:13:37;;;;;;;58.80;13.37;;;;;;;;;;4940481;28;20045;-54
2023/05/20 23:16:04;;;;;;;43.60;11.97;;;;;;;;;;4940876;28;20286;-53
2023/05/20 23:18:30;;;;;;;66.35;13.68;;;;;;;;;;4937939;28;20409;-54
2023/05/20 23:20:55;;;;;;;41.38;11.88;;;;;;;;;;4937672;28;20138;-55
2023/05/20 23:23:20;;;;;;;44.60;12.53;;;;;;;;;;4942901;28;20106;-55
2023/05/20 23:25:46;;;;;;;47.60;12.23;;;;;;;;;;4943479;28;20377;-55
2023/05/20 23:28:11;;;;;;;46.83;10.75;;;;;;;;;;4944044;28;20807;-56
2023/05/20 23:30:36;;;;;;;58.07;13.30;;;;;;;;;;4939709;28;20042;-53
2023/05/20 23:33:02;;;;;;;39.57;11.37;;;;;;;;;;4942684;28;20267;-54
2023/05/20 23:35:27;;;;;;;56.40;13.25;;;;;;;;;;4941807;28;20285;-53
2023/05/20 23:37:52;;;;;;;35.70;11.15;;;;;;;;;;4944655;28;20069;-55
2023/05/20 23:40:18;;;;;;;38.37;11.27;;;;;;;;;;4940827;28;20031;-53
2023/05/20 23:42:43;;;;;;;33.72;10.82;;;;;;;;;;4940818;28;20298;-55
2023/05/20 23:45:09;;;;;;;38.35;11.43;;;;;;;;;;4943675;28;20042;-51
2023/05/20 23:47:35;;;;;;;61.30;12.77;;;;;;;;;;4941445;28;20031;-53
2023/05/20 23:50:00;;;;;;;48.60;11.93;;;;;;;;;;4942024;28;20011;-53
2023/05/20 23:52:25;;;;;;;50.15;12.45;;;;;;;;;;4941582;28;20035;-53
2023/05/20 23:54:51;;;;;;;45.72;12.45;;;;;;;;;;4943356;28;20019;-55
2023/05/20 23:57:19;;;;;;;36.45;11.27;;;;;;;;;;4942850;28;20058;-53
2023/05/20 23:59:47;;;;;;;42.38;11.63;;;;;;;;;;4943176;28;20019;-54
